createdAt,value
2022-12-29T00:02:19.628Z,100075.91
2022-12-29T00:04:51.578Z,100075.06
2022-12-29T00:07:23.612Z,100056.72
2022-12-29T00:09:55.197Z,100066.91
2022-12-29T00:12:47.028Z,100064.25
2022-12-29T00:15:42.119Z,100057.03
2022-12-29T00:18:14.042Z,100056.63
2022-12-29T00:21:04.973Z,100051.91
2022-12-29T00:24:14.929Z,100055.38
2022-12-29T00:27:10.228Z,99937.19
2022-12-29T00:30:00.390Z,100052.06
2022-12-29T00:32:50.958Z,100041.00
2022-12-29T00:35:22.494Z,100040.19
2022-12-29T00:38:13.047Z,100043.81
2022-12-29T00:41:03.713Z,100039.53
2022-12-29T00:43:54.151Z,100029.97
2022-12-29T00:46:25.978Z,100038.50
2022-12-29T00:49:16.553Z,100029.38
2022-12-29T00:51:49.882Z,100035.94
2022-12-29T00:54:21.456Z,100024.06
2022-12-29T00:56:53.506Z,100028.56
2022-12-29T00:59:25.276Z,100020.16
2022-12-29T01:01:57.288Z,100028.13
2022-12-29T01:04:28.923Z,100023.47
2022-12-29T01:07:00.789Z,100021.41
2022-12-29T01:09:50.934Z,100006.75
2022-12-29T01:12:41.837Z,100013.06
2022-12-29T01:15:13.498Z,100025.09
2022-12-29T01:17:46.015Z,100012.84
2022-12-29T01:20:17.544Z,100020.97
2022-12-29T01:22:50.130Z,100012.41
2022-12-29T01:25:21.684Z,100010.13
2022-12-29T01:27:53.566Z,100009.91
2022-12-29T01:30:25.120Z,100013.16
2022-12-29T01:32:57.013Z,100017.44
2022-12-29T01:35:28.534Z,100013.16
2022-12-29T01:38:00.400Z,100009.91
2022-12-29T01:40:31.957Z,100017.13
2022-12-29T01:43:04.648Z,100017.78
2022-12-29T01:45:36.264Z,100016.16
2022-12-29T01:48:08.208Z,100015.41
2022-12-29T01:50:39.727Z,100014.38
2022-12-29T01:53:11.632Z,100008.84
2022-12-29T01:55:43.216Z,100000.47
2022-12-29T01:58:15.228Z,99996.34
2022-12-29T02:00:46.964Z,99992.50
2022-12-29T02:03:18.963Z,99983.53
2022-12-29T02:05:50.552Z,99985.13
2022-12-29T02:08:22.415Z,99990.22
2022-12-29T02:10:53.940Z,99980.00
2022-12-29T02:13:25.948Z,99981.38
2022-12-29T02:15:57.517Z,99973.97
2022-12-29T02:18:29.421Z,99973.59
2022-12-29T02:21:00.965Z,99979.28
2022-12-29T02:23:33.324Z,99973.31
2022-12-29T02:26:04.868Z,99980.63
2022-12-29T02:28:36.682Z,99974.44
2022-12-29T02:31:08.204Z,99968.09
2022-12-29T02:33:40.142Z,99969.25
2022-12-29T02:36:11.701Z,99972.50
2022-12-29T02:38:43.695Z,99972.88
2022-12-29T02:41:15.294Z,99961.59
2022-12-29T02:43:47.198Z,99960.50
2022-12-29T02:46:18.791Z,99955.19
2022-12-29T02:48:50.659Z,99963.06
2022-12-29T02:51:22.176Z,99966.91
2022-12-29T02:54:12.744Z,99961.97
2022-12-29T02:56:44.307Z,99968.03
2022-12-29T02:59:16.237Z,99966.75
2022-12-29T03:02:08.105Z,99961.34
2022-12-29T03:04:40.538Z,99961.28
2022-12-29T03:07:12.091Z,99956.94
2022-12-29T03:09:43.666Z,99953.47
2022-12-29T03:12:15.563Z,99944.81
2022-12-29T03:15:05.487Z,99937.06
2022-12-29T03:17:37.311Z,99930.25
2022-12-29T03:20:08.896Z,99932.47
2022-12-29T03:22:40.778Z,99919.03
2022-12-29T03:25:12.370Z,99916.50
2022-12-29T03:27:43.906Z,99920.44
2022-12-29T03:30:15.489Z,99921.84
2022-12-29T03:32:48.214Z,99917.91
2022-12-29T03:35:19.750Z,99919.75
2022-12-29T03:37:51.576Z,99918.25
2022-12-29T03:40:23.116Z,99919.66
2022-12-29T03:42:55.053Z,99916.78
2022-12-29T03:45:26.592Z,99912.50
2022-12-29T03:47:58.462Z,99911.44
2022-12-29T03:50:29.984Z,99914.91
2022-12-29T03:53:01.800Z,99921.16
2022-12-29T03:55:33.386Z,99915.50
2022-12-29T03:58:05.710Z,99911.81
2022-12-29T04:00:37.251Z,99923.00
2022-12-29T04:03:09.384Z,99931.34
2022-12-29T04:05:41.071Z,99913.41
2022-12-29T04:08:13.095Z,99907.66
2022-12-29T04:10:44.701Z,99913.34
2022-12-29T04:13:16.492Z,99915.78
2022-12-29T04:15:49.880Z,99918.22
2022-12-29T04:18:21.820Z,99915.31
2022-12-29T04:21:03.687Z,99908.63
2022-12-29T04:23:36.025Z,99908.63
2022-12-29T04:26:08.503Z,99925.94
2022-12-29T04:28:40.302Z,99907.13
2022-12-29T04:31:11.971Z,99910.94
2022-12-29T04:33:44.021Z,99904.00
2022-12-29T04:36:15.566Z,99904.81
2022-12-29T04:38:47.543Z,99894.16
2022-12-29T04:41:19.060Z,99893.00
2022-12-29T04:43:51.044Z,99901.56
2022-12-29T04:46:22.637Z,99907.47
2022-12-29T04:48:54.507Z,99894.06
2022-12-29T04:51:26.071Z,99898.69
2022-12-29T04:53:57.955Z,99889.19
2022-12-29T04:56:29.459Z,99890.59
2022-12-29T04:59:01.316Z,99873.72
2022-12-29T05:01:32.974Z,99878.69
2022-12-29T05:04:06.094Z,99897.63
2022-12-29T05:06:37.629Z,99899.41
2022-12-29T05:09:09.214Z,99898.34
2022-12-29T05:11:40.769Z,99893.63
2022-12-29T05:14:12.624Z,99898.34
2022-12-29T05:16:44.231Z,99883.78
2022-12-29T05:19:16.112Z,99865.50
2022-12-29T05:21:47.623Z,99878.22
2022-12-29T05:24:19.520Z,99871.88
2022-12-29T05:26:51.053Z,99856.72
2022-12-29T05:29:23.012Z,99856.25
2022-12-29T05:31:54.598Z,99845.94
2022-12-29T05:34:26.587Z,99849.66
2022-12-29T05:36:58.122Z,99853.00
2022-12-29T05:39:30.303Z,99847.09
2022-12-29T05:42:01.857Z,99843.50
2022-12-29T05:44:33.783Z,99846.84
2022-12-29T05:47:05.433Z,99838.97
2022-12-29T05:49:37.260Z,99844.41
2022-12-29T05:52:08.824Z,99842.88
2022-12-29T05:54:40.732Z,99852.50
2022-12-29T05:57:12.258Z,99840.66
2022-12-29T05:59:44.275Z,99836.38
2022-12-29T06:02:15.876Z,99832.09
2022-12-29T06:04:47.978Z,99834.97
2022-12-29T06:07:19.534Z,99826.72
2022-12-29T06:09:51.429Z,99837.38
2022-12-29T06:12:22.932Z,99824.63
2022-12-29T06:14:55.076Z,99849.66
2022-12-29T06:17:26.624Z,99827.22
2022-12-29T06:19:58.518Z,99831.47
2022-12-29T06:22:30.064Z,99828.25
2022-12-29T06:25:05.108Z,99830.09
2022-12-29T06:27:36.818Z,99827.91
2022-12-29T06:30:08.696Z,99836.47
2022-12-29T06:32:40.311Z,99837.84
2022-12-29T06:35:12.052Z,99837.03
2022-12-29T06:37:44.594Z,99834.72
2022-12-29T06:40:16.121Z,99837.38
2022-12-29T06:42:48.425Z,99839.31
2022-12-29T06:45:19.934Z,99840.38
2022-12-29T06:47:51.666Z,99835.63
2022-12-29T06:50:23.188Z,99842.56
2022-12-29T06:52:54.729Z,99848.69
2022-12-29T06:55:26.344Z,99858.09
2022-12-29T06:57:58.235Z,99863.66
2022-12-29T07:00:29.839Z,99856.13
2022-12-29T07:03:01.824Z,99862.25
2022-12-29T07:05:33.904Z,99857.16
2022-12-29T07:08:06.272Z,99860.53
2022-12-29T07:10:37.875Z,99853.84
2022-12-29T07:13:09.756Z,99852.69
2022-12-29T07:15:41.271Z,99861.81
2022-12-29T07:18:13.089Z,99875.72
2022-12-29T07:20:44.610Z,99862.28
2022-12-29T07:23:16.427Z,99865.53
2022-12-29T07:25:48.036Z,99878.38
2022-12-29T07:28:19.927Z,99871.75
2022-12-29T07:30:51.504Z,99871.03
2022-12-29T07:33:23.509Z,99872.66
2022-12-29T07:35:55.097Z,99875.31
2022-12-29T07:38:26.949Z,99869.56
2022-12-29T07:40:59.138Z,99862.94
2022-12-29T07:43:30.704Z,99845.34
2022-12-29T07:46:02.356Z,99867.31
2022-12-29T07:48:37.236Z,99857.16
2022-12-29T07:51:08.782Z,99861.28
2022-12-29T07:53:40.698Z,99873.47
2022-12-29T07:56:12.204Z,99871.13
2022-12-29T07:58:44.499Z,99869.56
2022-12-29T08:01:16.071Z,99865.84
2022-12-29T08:03:52.623Z,99859.72
2022-12-29T08:06:27.117Z,99852.06
2022-12-29T08:09:04.126Z,99865.69
2022-12-29T08:11:39.851Z,99867.31
2022-12-29T08:14:11.905Z,99853.28
2022-12-29T08:16:43.435Z,99852.59
2022-12-29T08:19:15.282Z,99836.38
2022-12-29T08:21:46.873Z,99843.81
2022-12-29T08:24:18.809Z,99862.88
2022-12-29T08:26:50.336Z,99857.06
2022-12-29T08:29:22.727Z,99850.34
2022-12-29T08:31:54.614Z,99849.78
2022-12-29T08:34:26.578Z,99851.41
2022-12-29T08:36:58.109Z,99851.06
2022-12-29T08:39:29.980Z,99853.16
2022-12-29T08:42:01.508Z,99849.13
2022-12-29T08:44:33.414Z,99843.81
2022-12-29T08:47:05.008Z,99848.88
2022-12-29T08:49:36.543Z,99857.13
2022-12-29T08:52:08.272Z,99849.31
2022-12-29T08:54:40.148Z,99847.91
2022-12-29T08:57:11.684Z,99846.94
2022-12-29T08:59:43.894Z,99851.22
2022-12-29T09:02:20.334Z,99847.19
2022-12-29T09:04:55.777Z,99846.44
2022-12-29T09:07:27.377Z,99846.44
2022-12-29T09:09:58.909Z,99851.53
2022-12-29T09:12:36.166Z,99846.78
2022-12-29T09:15:08.718Z,99847.03
2022-12-29T09:17:44.395Z,99838.47
2022-12-29T09:20:16.319Z,99845.25
2022-12-29T09:22:47.861Z,99844.19
2022-12-29T09:25:19.796Z,99830.47
2022-12-29T09:27:53.294Z,99838.84
2022-12-29T09:30:25.222Z,99839.34
2022-12-29T09:32:56.771Z,99820.56
2022-12-29T09:35:28.825Z,99804.97
2022-12-29T09:38:00.354Z,99833.63
2022-12-29T09:40:32.228Z,99817.69
2022-12-29T09:43:03.756Z,99813.16
2022-12-29T09:45:35.639Z,99817.13
2022-12-29T09:48:09.858Z,99813.41
2022-12-29T09:50:41.868Z,99802.19
2022-12-29T09:53:13.382Z,99806.59
2022-12-29T09:55:45.228Z,99809.84
2022-12-29T09:58:16.737Z,99802.34
2022-12-29T10:00:54.603Z,99810.78
2022-12-29T10:03:26.917Z,99827.31
2022-12-29T10:05:58.971Z,99795.00
2022-12-29T10:08:31.061Z,99794.13
2022-12-29T10:11:03.147Z,99820.91
2022-12-29T10:13:34.704Z,99819.78
2022-12-29T10:16:06.626Z,99808.81
2022-12-29T10:18:38.156Z,99809.56
2022-12-29T10:21:10.029Z,99814.22
2022-12-29T10:23:41.636Z,99815.28
2022-12-29T10:26:13.445Z,99806.28
2022-12-29T10:28:45.037Z,99806.63
2022-12-29T10:31:18.203Z,99808.75
2022-12-29T10:33:49.729Z,99800.50
2022-12-29T10:36:21.618Z,99808.50
2022-12-29T10:38:53.136Z,99799.78
2022-12-29T10:41:25.000Z,99802.78
2022-12-29T10:43:56.580Z,99790.38
2022-12-29T10:46:28.463Z,99802.97
2022-12-29T10:48:59.995Z,99805.72
2022-12-29T10:51:31.936Z,99806.69
2022-12-29T10:54:03.473Z,99600.06
2022-12-29T10:56:35.407Z,99804.66
2022-12-29T10:59:07.418Z,99801.81
2022-12-29T11:01:39.150Z,99810.16
2022-12-29T11:04:11.061Z,99797.84
2022-12-29T11:06:42.559Z,99777.22
2022-12-29T11:09:14.390Z,99817.78
2022-12-29T11:11:46.359Z,99813.25
2022-12-29T11:14:18.220Z,99804.41
2022-12-29T11:16:49.782Z,99800.31
2022-12-29T11:19:21.788Z,99811.41
2022-12-29T11:21:53.321Z,99796.34
2022-12-29T11:24:25.229Z,99809.47
2022-12-29T11:26:59.602Z,99815.81
2022-12-29T11:29:32.488Z,99804.94
2022-12-29T11:32:04.012Z,99821.44
2022-12-29T11:34:36.012Z,99828.91
2022-12-29T11:37:07.579Z,99796.59
2022-12-29T11:39:39.485Z,99829.72
2022-12-29T11:42:11.705Z,99825.28
2022-12-29T11:44:43.742Z,99816.41
2022-12-29T11:47:15.282Z,99823.28
2022-12-29T11:49:47.161Z,99834.50
2022-12-29T11:52:18.685Z,99816.41
2022-12-29T11:54:50.576Z,99826.44
2022-12-29T11:57:22.102Z,99832.88
2022-12-29T11:59:56.493Z,99841.16
2022-12-29T12:02:29.608Z,99851.66
2022-12-29T12:05:02.816Z,99857.47
2022-12-29T12:07:34.339Z,99849.22
2022-12-29T12:10:08.068Z,99856.88
2022-12-29T12:12:39.798Z,99860.56
2022-12-29T12:15:11.798Z,99855.00
2022-12-29T12:17:43.312Z,99849.78
2022-12-29T12:20:15.134Z,99854.44
2022-12-29T12:22:46.659Z,99846.56
2022-12-29T12:25:18.733Z,99842.06
2022-12-29T12:27:51.461Z,99842.50
2022-12-29T12:30:23.557Z,99843.78
2022-12-29T12:32:56.001Z,99845.56
2022-12-29T12:35:27.854Z,99833.28
2022-12-29T12:38:00.044Z,99837.22
2022-12-29T12:40:32.057Z,99830.19
2022-12-29T12:43:03.584Z,99821.72
2022-12-29T12:45:35.443Z,99823.94
2022-12-29T12:48:06.943Z,99820.59
2022-12-29T12:50:38.812Z,99833.53
2022-12-29T12:53:10.365Z,99828.56
2022-12-29T12:55:42.326Z,99817.19
2022-12-29T12:58:13.841Z,99828.16
2022-12-29T13:00:46.980Z,99828.41
2022-12-29T13:03:18.563Z,99605.44
2022-12-29T13:05:50.559Z,99822.28
2022-12-29T13:08:24.729Z,99820.34
2022-12-29T13:10:56.688Z,99833.16
2022-12-29T13:13:28.305Z,99840.94
2022-12-29T13:16:00.446Z,99841.78
2022-12-29T13:18:32.036Z,99841.44
2022-12-29T13:21:03.962Z,99847.66
2022-12-29T13:23:35.487Z,99843.22
2022-12-29T13:26:07.450Z,99838.38
2022-12-29T13:28:38.965Z,99838.41
2022-12-29T13:31:10.817Z,99847.84
2022-12-29T13:33:42.415Z,99836.66
2022-12-29T13:36:14.339Z,99840.03
2022-12-29T13:38:45.943Z,99844.16
2022-12-29T13:41:17.873Z,99843.59
2022-12-29T13:43:49.502Z,99843.13
2022-12-29T13:46:21.404Z,99845.91
2022-12-29T13:48:52.959Z,99845.78
2022-12-29T13:51:28.022Z,99847.16
2022-12-29T13:54:00.070Z,99860.22
2022-12-29T13:56:31.939Z,99853.91
2022-12-29T13:59:03.466Z,99852.41
2022-12-29T14:01:35.276Z,99846.63
2022-12-29T14:04:06.894Z,99894.91
2022-12-29T14:06:41.913Z,99852.88
2022-12-29T14:09:13.483Z,99859.72
2022-12-29T14:11:45.549Z,99866.91
2022-12-29T14:14:17.086Z,99850.94
2022-12-29T14:16:48.939Z,99855.44
2022-12-29T14:19:20.450Z,99849.56
2022-12-29T14:21:52.527Z,99861.00
2022-12-29T14:24:24.055Z,99852.56
2022-12-29T14:26:55.858Z,99860.53
2022-12-29T14:29:27.380Z,99866.00
2022-12-29T14:31:59.215Z,99866.56
2022-12-29T14:34:30.986Z,99875.03
2022-12-29T14:37:02.922Z,99879.53
2022-12-29T14:39:34.503Z,99878.50
2022-12-29T14:42:06.446Z,99884.63
2022-12-29T14:44:37.973Z,99886.97
2022-12-29T14:47:09.972Z,99892.19
2022-12-29T14:49:42.019Z,99893.19
2022-12-29T14:52:13.837Z,99892.84
2022-12-29T14:54:45.406Z,99896.44
2022-12-29T14:57:17.407Z,99894.47
2022-12-29T14:59:48.953Z,99904.41
2022-12-29T15:02:20.917Z,99908.03
2022-12-29T15:04:52.505Z,99907.09
2022-12-29T15:07:24.341Z,99904.78
2022-12-29T15:09:55.887Z,99905.16
2022-12-29T15:12:27.853Z,99905.06
2022-12-29T15:14:59.356Z,99911.06
2022-12-29T15:17:31.479Z,99931.41
2022-12-29T15:20:02.993Z,99928.84
2022-12-29T15:22:34.863Z,99943.66
2022-12-29T15:25:06.393Z,99940.41
2022-12-29T15:27:38.248Z,99947.25
2022-12-29T15:30:13.927Z,99952.72
2022-12-29T15:32:49.867Z,99951.69
2022-12-29T15:35:21.424Z,99951.81
2022-12-29T15:37:53.338Z,99955.13
2022-12-29T15:40:25.314Z,99951.56
2022-12-29T15:42:57.247Z,99957.00
2022-12-29T15:45:28.807Z,99954.44
2022-12-29T15:48:00.735Z,99960.13
2022-12-29T15:50:32.324Z,99957.34
2022-12-29T15:53:04.346Z,99964.53
2022-12-29T15:55:35.859Z,99965.31
2022-12-29T15:58:07.779Z,99969.84
2022-12-29T16:00:39.407Z,99976.56
2022-12-29T16:03:11.470Z,99971.81
2022-12-29T16:05:43.405Z,99975.84
2022-12-29T16:08:14.975Z,99978.63
2022-12-29T16:10:47.014Z,99984.19
2022-12-29T16:13:18.603Z,99990.09
2022-12-29T16:15:50.538Z,99990.69
2022-12-29T16:18:22.095Z,99990.94
2022-12-29T16:20:53.937Z,99989.66
2022-12-29T16:23:25.555Z,99987.81
2022-12-29T16:25:58.985Z,100004.56
2022-12-29T16:28:30.565Z,99989.88
2022-12-29T16:31:02.558Z,99993.94
2022-12-29T16:33:34.134Z,100001.09
2022-12-29T16:36:05.952Z,100002.59
2022-12-29T16:38:37.503Z,100000.88
2022-12-29T16:41:09.341Z,100007.31
2022-12-29T16:43:43.415Z,100022.25
2022-12-29T16:46:15.504Z,100020.63
2022-12-29T16:48:47.152Z,100014.50
2022-12-29T16:51:19.130Z,100016.13
2022-12-29T16:53:50.659Z,100023.28
2022-12-29T16:56:22.902Z,100020.63
2022-12-29T16:58:55.399Z,100019.94
2022-12-29T17:01:27.407Z,100031.28
2022-12-29T17:03:59.080Z,100023.06
2022-12-29T17:06:31.096Z,100030.59
2022-12-29T17:09:02.735Z,100028.50
2022-12-29T17:11:59.303Z,100032.31
2022-12-29T17:14:34.379Z,100050.50
2022-12-29T17:17:06.301Z,100043.59
2022-12-29T17:19:38.508Z,100054.56
2022-12-29T17:22:10.493Z,100049.03
2022-12-29T17:24:42.022Z,100040.22
2022-12-29T17:27:13.882Z,100052.25
2022-12-29T17:29:45.441Z,100045.78
2022-12-29T17:32:17.427Z,100037.31
2022-12-29T17:34:49.022Z,100038.81
2022-12-29T17:37:20.932Z,100059.31
2022-12-29T17:39:52.465Z,100063.38
2022-12-29T17:42:24.401Z,100055.50
2022-12-29T17:44:55.930Z,100053.31
2022-12-29T17:47:27.771Z,100055.38
2022-12-29T17:49:59.309Z,100049.03
2022-12-29T17:52:31.314Z,100050.63
2022-12-29T17:55:02.920Z,100046.25
2022-12-29T17:57:34.994Z,100038.25
2022-12-29T18:00:06.688Z,100040.56
2022-12-29T18:02:38.966Z,100050.41
2022-12-29T18:05:10.643Z,100051.53
2022-12-29T18:07:42.650Z,100053.16
2022-12-29T18:10:14.202Z,100046.44
2022-12-29T18:12:46.077Z,100059.03
2022-12-29T18:15:17.633Z,100065.06
2022-12-29T18:17:49.537Z,100056.81
2022-12-29T18:20:21.065Z,100058.19
2022-12-29T18:22:53.222Z,100072.84
2022-12-29T18:25:24.849Z,100068.97
2022-12-29T18:27:57.234Z,100071.50
2022-12-29T18:30:28.772Z,100074.16
2022-12-29T18:33:00.791Z,100090.44
2022-12-29T18:35:32.338Z,100086.44
2022-12-29T18:38:06.285Z,100085.13
2022-12-29T18:40:37.849Z,100087.84
2022-12-29T18:43:09.822Z,100090.75
2022-12-29T18:45:41.506Z,100092.81
2022-12-29T18:48:13.560Z,100086.31
2022-12-29T18:50:45.142Z,100094.16
2022-12-29T18:53:17.167Z,100087.22
2022-12-29T18:55:48.741Z,100084.75
2022-12-29T18:58:20.586Z,100087.63
2022-12-29T19:00:52.233Z,100091.09
2022-12-29T19:03:24.173Z,100095.81
2022-12-29T19:05:55.914Z,100090.50
2022-12-29T19:08:27.974Z,100096.84
2022-12-29T19:10:59.560Z,100101.13
2022-12-29T19:13:31.786Z,100102.81
2022-12-29T19:16:03.465Z,100100.31
2022-12-29T19:18:44.590Z,100090.50
2022-12-29T19:21:19.995Z,100101.56
2022-12-29T19:23:52.377Z,100103.34
2022-12-29T19:26:24.063Z,100104.31
2022-12-29T19:28:55.999Z,100114.16
2022-12-29T19:31:27.579Z,100121.22
2022-12-29T19:34:00.210Z,100118.84
2022-12-29T19:36:31.800Z,100114.22
2022-12-29T19:39:03.681Z,100120.25
2022-12-29T19:41:35.227Z,100121.66
2022-12-29T19:44:08.709Z,100124.22
2022-12-29T19:46:40.293Z,100121.56
2022-12-29T19:49:12.325Z,100134.88
2022-12-29T19:51:43.876Z,100132.56
2022-12-29T19:54:15.743Z,100126.22
2022-12-29T19:56:47.334Z,100133.38
2022-12-29T19:59:19.911Z,100131.34
2022-12-29T20:01:51.651Z,100126.38
2022-12-29T20:04:24.639Z,100126.84
2022-12-29T20:06:56.227Z,100126.03
2022-12-29T20:09:28.107Z,100126.03
2022-12-29T20:11:59.705Z,100125.56
2022-12-29T20:14:31.630Z,100137.38
2022-12-29T20:17:11.370Z,100119.59
2022-12-29T20:19:45.081Z,100126.31
2022-12-29T20:22:16.627Z,100120.66
2022-12-29T20:24:50.340Z,100114.75
2022-12-29T20:27:24.064Z,100124.13
2022-12-29T20:29:55.679Z,100124.72
2022-12-29T20:32:27.548Z,100127.28
2022-12-29T20:34:59.117Z,100126.47
2022-12-29T20:37:31.109Z,100123.22
2022-12-29T20:40:02.636Z,100133.41
2022-12-29T20:42:34.518Z,100134.22
2022-12-29T20:45:06.078Z,100128.47
2022-12-29T20:47:38.240Z,100132.97
2022-12-29T20:50:09.831Z,100129.06
2022-12-29T20:52:41.921Z,100125.81
2022-12-29T20:55:13.511Z,100132.38
2022-12-29T20:58:21.812Z,100121.38
2022-12-29T21:00:37.180Z,100126.81
2022-12-29T21:03:10.346Z,100126.66
2022-12-29T21:05:42.069Z,100128.97
2022-12-29T21:08:14.109Z,100129.41
2022-12-29T21:10:45.646Z,100121.94
2022-12-29T21:13:17.513Z,100120.75
2022-12-29T21:15:49.253Z,100131.41
2022-12-29T21:18:21.329Z,100136.78
2022-12-29T21:20:52.949Z,100124.53
2022-12-29T21:23:25.059Z,100128.81
2022-12-29T21:25:56.631Z,100130.88
2022-12-29T21:28:28.627Z,100133.53
2022-12-29T21:31:00.259Z,100138.88
2022-12-29T21:33:32.270Z,100144.19
2022-12-29T21:36:03.832Z,100146.25
2022-12-29T21:38:35.917Z,100149.56
2022-12-29T21:41:07.606Z,100151.28
2022-12-29T21:43:39.606Z,100151.72
2022-12-29T21:46:11.196Z,100144.44
2022-12-29T21:48:43.162Z,100160.81
2022-12-29T21:51:33.310Z,100169.69
2022-12-29T21:54:23.809Z,100162.16
2022-12-29T21:56:55.372Z,100173.38
2022-12-29T21:59:45.837Z,100176.03
2022-12-29T22:02:36.257Z,100181.78
2022-12-29T22:05:26.774Z,100163.78
2022-12-29T22:08:17.187Z,100173.97
2022-12-29T22:11:07.684Z,100172.78
2022-12-29T22:13:39.589Z,100170.97
2022-12-29T22:16:11.189Z,100173.63
2022-12-29T22:18:43.140Z,100172.22
2022-12-29T22:21:14.685Z,100172.66
2022-12-29T22:23:46.384Z,100167.19
2022-12-29T22:26:17.952Z,100167.81
2022-12-29T22:28:52.423Z,100166.63
2022-12-29T22:31:27.235Z,100161.16
2022-12-29T22:33:59.404Z,100174.25
2022-12-29T22:36:31.054Z,100172.84
2022-12-29T22:39:03.012Z,100172.31
2022-12-29T22:41:34.536Z,100179.50
2022-12-29T22:44:07.108Z,100182.81
2022-12-29T22:46:38.721Z,100185.06
2022-12-29T22:49:10.633Z,100189.38
2022-12-29T22:51:42.159Z,100190.84
2022-12-29T22:54:14.867Z,100195.75
2022-12-29T22:56:46.440Z,100206.41
2022-12-29T22:59:18.341Z,100210.09
2022-12-29T23:01:49.981Z,100211.94
2022-12-29T23:07:13.317Z,100219.94
2022-12-29T23:09:45.433Z,100218.69
2022-12-29T23:12:16.960Z,100223.22
2022-12-29T23:14:48.896Z,100219.16
2022-12-29T23:17:20.407Z,100221.19
2022-12-29T23:19:52.290Z,100222.41
2022-12-29T23:22:25.050Z,100228.31
2022-12-29T23:24:56.974Z,100228.75
2022-12-29T23:27:28.503Z,100047.09
2022-12-29T23:30:00.556Z,100241.97
2022-12-29T23:32:32.084Z,100240.34
2022-12-29T23:35:03.951Z,100235.03
2022-12-29T23:37:35.476Z,100233.00
2022-12-29T23:40:07.436Z,100247.69
2022-12-29T23:42:38.957Z,100228.91
2022-12-29T23:45:10.773Z,100242.34
2022-12-29T23:47:42.295Z,100247.63
2022-12-29T23:50:14.202Z,100241.25
2022-12-29T23:52:45.717Z,100245.31
2022-12-29T23:55:17.639Z,100255.13
2022-12-29T23:57:49.148Z,100260.97
